createdAt,value
2022-10-01T00:00:44.092Z,0.00
2022-10-01T00:01:44.196Z,0.00
2022-10-01T00:02:44.158Z,0.00
2022-10-01T00:03:44.062Z,0.00
2022-10-01T00:04:44.043Z,0.00
2022-10-01T00:05:44.042Z,0.00
2022-10-01T00:06:44.023Z,0.00
2022-10-01T00:07:44.020Z,0.00
2022-10-01T00:08:44.084Z,0.00
2022-10-01T00:09:43.994Z,0.00
2022-10-01T00:10:43.972Z,0.00
2022-10-01T00:11:43.974Z,0.00
2022-10-01T00:12:43.952Z,0.00
2022-10-01T00:13:43.933Z,0.00
2022-10-01T00:14:43.951Z,0.00
2022-10-01T00:15:43.922Z,0.00
2022-10-01T00:16:43.977Z,0.00
2022-10-01T00:17:43.893Z,0.00
2022-10-01T00:18:43.913Z,0.00
2022-10-01T00:19:43.933Z,0.00
2022-10-01T00:20:43.852Z,0.00
2022-10-01T00:21:43.841Z,0.00
2022-10-01T00:22:43.862Z,0.00
2022-10-01T00:23:43.821Z,0.00
2022-10-01T00:24:43.811Z,0.00
2022-10-01T00:25:43.837Z,0.00
2022-10-01T00:26:43.791Z,0.00
2022-10-01T00:27:43.816Z,0.00
2022-10-01T00:28:43.771Z,0.00
2022-10-01T00:29:43.761Z,0.00
2022-10-01T00:30:43.784Z,0.00
2022-10-01T00:31:43.998Z,0.00
2022-10-01T00:32:43.721Z,0.00
2022-10-01T00:33:43.700Z,0.00
2022-10-01T00:34:43.699Z,0.00
2022-10-01T00:35:43.681Z,0.00
2022-10-01T00:36:43.671Z,0.00
2022-10-01T00:37:43.674Z,0.00
2022-10-01T00:38:43.651Z,0.00
2022-10-01T00:39:43.635Z,0.00
2022-10-01T00:40:43.632Z,0.00
2022-10-01T00:41:43.612Z,0.00
2022-10-01T00:42:43.593Z,0.00
2022-10-01T00:43:43.601Z,0.00
2022-10-01T00:44:43.571Z,0.00
2022-10-01T00:45:43.671Z,0.00
2022-10-01T00:46:43.551Z,0.00
2022-10-01T00:47:43.531Z,0.00
2022-10-01T00:48:43.531Z,0.00
2022-10-01T00:49:43.654Z,0.00
2022-10-01T00:50:43.534Z,0.00
2022-10-01T00:51:43.501Z,0.00
2022-10-01T00:52:43.480Z,0.00
2022-10-01T00:53:43.469Z,0.00
2022-10-01T00:54:43.488Z,0.00
2022-10-01T00:55:43.458Z,0.00
2022-10-01T00:56:43.433Z,0.00
2022-10-01T00:57:43.430Z,0.00
2022-10-01T00:58:43.411Z,0.00
2022-10-01T00:59:43.392Z,0.00
2022-10-01T01:00:43.471Z,0.00
2022-10-01T01:01:43.430Z,0.00
2022-10-01T01:02:43.454Z,0.00
2022-10-01T01:03:43.351Z,0.00
2022-10-01T01:04:43.342Z,0.00
2022-10-01T01:05:43.340Z,0.00
2022-10-01T01:06:43.362Z,0.00
2022-10-01T01:07:43.318Z,0.00
2022-10-01T01:08:43.310Z,0.00
2022-10-01T01:09:43.289Z,0.00
2022-10-01T01:10:43.272Z,0.00
2022-10-01T01:11:43.269Z,0.00
2022-10-01T01:12:43.362Z,0.00
2022-10-01T01:13:43.231Z,0.00
2022-10-01T01:14:43.230Z,0.00
2022-10-01T01:15:43.268Z,0.00
2022-10-01T01:16:43.202Z,0.00
2022-10-01T01:17:43.261Z,0.00
2022-10-01T01:18:43.181Z,0.00
2022-10-01T01:19:43.181Z,0.00
2022-10-01T01:20:43.162Z,0.00
2022-10-01T01:21:43.140Z,0.00
2022-10-01T01:22:43.130Z,0.00
2022-10-01T01:23:43.150Z,0.00
2022-10-01T01:24:43.119Z,0.00
2022-10-01T01:25:43.111Z,0.00
2022-10-01T01:26:43.091Z,0.00
2022-10-01T01:27:43.154Z,0.00
2022-10-01T01:28:43.120Z,0.00
2022-10-01T01:29:43.050Z,0.00
2022-10-01T01:30:43.091Z,0.00
2022-10-01T01:31:43.060Z,0.00
2022-10-01T01:32:43.021Z,0.00
2022-10-01T01:33:43.010Z,0.00
2022-10-01T01:34:43.020Z,0.00
2022-10-01T01:35:43.001Z,0.00
2022-10-01T01:36:42.993Z,0.00
2022-10-01T01:37:42.992Z,0.00
2022-10-01T01:38:42.950Z,0.00
2022-10-01T01:39:42.941Z,0.00
2022-10-01T01:40:42.950Z,0.00
2022-10-01T01:41:42.920Z,0.00
2022-10-01T01:42:42.907Z,0.00
2022-10-01T01:43:42.901Z,0.00
2022-10-01T01:44:42.894Z,0.00
2022-10-01T01:45:42.928Z,0.00
2022-10-01T01:46:42.881Z,0.00
2022-10-01T01:47:42.848Z,0.00
2022-10-01T01:48:42.842Z,0.00
2022-10-01T01:49:42.821Z,0.00
2022-10-01T01:50:42.821Z,0.00
2022-10-01T01:51:42.830Z,0.00
2022-10-01T01:52:42.800Z,0.00
2022-10-01T01:53:42.790Z,0.00
2022-10-01T01:54:42.780Z,0.00
2022-10-01T01:55:42.780Z,0.00
2022-10-01T01:56:42.752Z,0.00
2022-10-01T01:57:42.758Z,0.00
2022-10-01T01:58:42.729Z,0.00
2022-10-01T01:59:42.741Z,0.00
2022-10-01T02:00:42.707Z,0.00
2022-10-01T02:01:42.741Z,0.00
2022-10-01T02:02:42.695Z,0.00
2022-10-01T02:03:42.690Z,0.00
2022-10-01T02:04:42.659Z,0.00
2022-10-01T02:05:42.684Z,0.00
2022-10-01T02:06:42.633Z,0.00
2022-10-01T02:07:42.629Z,0.00
2022-10-01T02:08:42.612Z,0.00
2022-10-01T02:09:42.624Z,0.00
2022-10-01T02:10:42.589Z,0.00
2022-10-01T02:11:42.580Z,0.00
2022-10-01T02:12:42.567Z,0.00
2022-10-01T02:13:42.591Z,0.00
2022-10-01T02:14:42.552Z,0.00
2022-10-01T02:15:42.719Z,0.00
2022-10-01T02:16:42.519Z,0.00
2022-10-01T02:17:42.512Z,0.00
2022-10-01T02:18:42.499Z,0.00
2022-10-01T02:19:42.480Z,0.00
2022-10-01T02:20:42.479Z,0.00
2022-10-01T02:21:42.507Z,0.00
2022-10-01T02:22:42.459Z,0.00
2022-10-01T02:23:42.440Z,0.00
2022-10-01T02:24:42.430Z,0.00
2022-10-01T02:25:42.439Z,0.00
2022-10-01T02:26:42.429Z,0.00
2022-10-01T02:27:42.428Z,0.00
2022-10-01T02:28:42.390Z,0.00
2022-10-01T02:29:42.369Z,0.00
2022-10-01T02:30:42.368Z,0.00
2022-10-01T02:31:42.447Z,0.00
2022-10-01T02:32:42.419Z,0.00
2022-10-01T02:33:42.349Z,0.00
2022-10-01T02:34:42.328Z,0.00
2022-10-01T02:35:42.336Z,0.00
2022-10-01T02:36:42.301Z,0.00
2022-10-01T02:37:42.280Z,0.00
2022-10-01T02:38:42.277Z,0.00
2022-10-01T02:39:42.279Z,0.00
2022-10-01T02:40:42.300Z,0.00
2022-10-01T02:41:42.247Z,0.00
2022-10-01T02:42:42.233Z,0.00
2022-10-01T02:43:43.216Z,0.00
2022-10-01T02:44:42.228Z,0.00
2022-10-01T02:45:42.240Z,0.00
2022-10-01T02:46:42.203Z,0.00
2022-10-01T02:47:42.172Z,0.00
2022-10-01T02:48:42.158Z,0.00
2022-10-01T02:49:42.149Z,0.00
2022-10-01T02:50:42.164Z,0.00
2022-10-01T02:51:42.130Z,0.00
2022-10-01T02:52:42.189Z,0.00
2022-10-01T02:53:42.098Z,0.00
2022-10-01T02:54:42.097Z,0.00
2022-10-01T02:55:42.099Z,0.00
2022-10-01T02:56:48.618Z,0.00
2022-10-01T02:57:43.069Z,0.00
2022-10-01T02:58:42.048Z,0.00
2022-10-01T02:59:42.037Z,0.00
2022-10-01T03:00:42.168Z,0.00
2022-10-01T03:01:42.049Z,0.00
2022-10-01T03:02:42.070Z,0.00
2022-10-01T03:03:41.989Z,0.00
2022-10-01T03:04:41.979Z,0.00
2022-10-01T03:05:41.991Z,0.00
2022-10-01T03:06:41.968Z,0.00
2022-10-01T03:07:41.949Z,0.00
2022-10-01T03:08:41.972Z,0.00
2022-10-01T03:09:41.930Z,0.00
2022-10-01T03:10:45.995Z,0.00
2022-10-01T03:11:41.898Z,0.00
2022-10-01T03:12:41.890Z,0.00
2022-10-01T03:13:41.881Z,0.00
2022-10-01T03:14:41.957Z,0.00
2022-10-01T03:15:41.919Z,0.00
2022-10-01T03:16:41.848Z,0.00
2022-10-01T03:18:31.339Z,0.00
2022-10-01T03:19:31.348Z,0.00
2022-10-01T03:20:31.328Z,0.00
2022-10-01T03:21:31.671Z,0.00
2022-10-01T03:22:31.309Z,0.00
2022-10-01T03:23:31.288Z,0.00
2022-10-01T03:24:31.280Z,0.00
2022-10-01T03:25:31.289Z,0.00
2022-10-01T03:26:31.260Z,0.00
2022-10-01T03:27:31.239Z,0.00
2022-10-01T03:28:31.276Z,0.00
2022-10-01T03:29:31.219Z,0.00
2022-10-01T03:30:31.209Z,0.00
2022-10-01T03:31:31.687Z,0.00
2022-10-01T03:32:31.189Z,0.00
2022-10-01T03:33:31.169Z,0.00
2022-10-01T03:34:31.163Z,0.00
2022-10-01T03:35:31.150Z,0.00
2022-10-01T03:36:31.150Z,0.00
2022-10-01T03:37:31.150Z,0.00
2022-10-01T03:38:31.119Z,0.00
2022-10-01T03:39:31.107Z,0.00
2022-10-01T03:40:31.099Z,0.00
2022-10-01T03:41:31.186Z,0.00
2022-10-01T03:42:31.070Z,0.00
2022-10-01T03:43:31.071Z,0.00
2022-10-01T03:44:31.050Z,0.00
2022-10-01T03:45:31.117Z,0.00
2022-10-01T03:46:31.029Z,0.00
2022-10-01T03:47:31.009Z,0.00
2022-10-01T03:48:31.029Z,0.00
2022-10-01T03:49:30.991Z,0.00
2022-10-01T03:50:30.981Z,0.00
2022-10-01T03:51:31.168Z,0.00
2022-10-01T03:52:30.959Z,0.00
2022-10-01T03:53:30.951Z,0.00
2022-10-01T03:54:30.958Z,0.00
2022-10-01T03:55:30.922Z,0.00
2022-10-01T03:56:30.912Z,0.00
2022-10-01T03:57:30.898Z,0.00
2022-10-01T03:58:30.897Z,0.00
2022-10-01T03:59:30.891Z,0.00
2022-10-01T04:00:30.889Z,0.00
2022-10-01T04:01:31.105Z,0.00
2022-10-01T04:02:31.002Z,0.00
2022-10-01T04:03:30.831Z,0.00
2022-10-01T04:04:30.821Z,0.00
2022-10-01T04:05:30.810Z,0.00
2022-10-01T04:06:30.821Z,0.00
2022-10-01T04:07:30.796Z,0.00
2022-10-01T04:08:30.779Z,0.00
2022-10-01T04:09:30.761Z,0.00
2022-10-01T04:10:30.757Z,0.00
2022-10-01T04:11:31.019Z,0.00
2022-10-01T04:12:30.750Z,0.00
2022-10-01T04:13:30.719Z,0.00
2022-10-01T04:14:30.709Z,0.00
2022-10-01T04:15:30.699Z,0.00
2022-10-01T04:16:30.735Z,0.00
2022-10-01T04:17:30.718Z,0.00
2022-10-01T04:18:30.664Z,0.00
2022-10-01T04:19:30.649Z,0.00
2022-10-01T04:20:30.770Z,0.00
2022-10-01T04:21:30.788Z,0.00
2022-10-01T04:22:30.618Z,0.00
2022-10-01T04:23:30.631Z,0.00
2022-10-01T04:24:30.590Z,0.00
2022-10-01T04:25:30.589Z,0.00
2022-10-01T04:26:30.569Z,0.00
2022-10-01T04:27:30.562Z,0.00
2022-10-01T04:28:30.607Z,0.00
2022-10-01T04:29:30.560Z,0.00
2022-10-01T04:30:30.521Z,0.00
2022-10-01T04:31:30.534Z,0.00
2022-10-01T04:32:30.508Z,0.00
2022-10-01T04:33:30.502Z,0.00
2022-10-01T04:34:30.488Z,0.00
2022-10-01T04:35:30.488Z,0.00
2022-10-01T04:36:30.452Z,0.00
2022-10-01T04:37:30.448Z,0.00
2022-10-01T04:38:30.437Z,0.00
2022-10-01T04:39:30.428Z,0.00
2022-10-01T04:40:30.429Z,0.00
2022-10-01T04:41:30.514Z,0.00
2022-10-01T04:42:30.389Z,0.00
2022-10-01T04:43:30.379Z,0.00
2022-10-01T04:44:30.370Z,0.00
2022-10-01T04:45:30.358Z,0.00
2022-10-01T04:46:30.660Z,0.00
2022-10-01T04:47:32.676Z,0.00
2022-10-01T04:48:30.319Z,0.00
2022-10-01T04:49:30.317Z,0.00
2022-10-01T04:50:30.298Z,0.00
2022-10-01T04:51:30.289Z,0.00
2022-10-01T04:52:30.298Z,0.00
2022-10-01T04:53:30.268Z,0.00
2022-10-01T04:54:30.258Z,0.00
2022-10-01T04:55:30.249Z,0.00
2022-10-01T04:56:30.230Z,0.00
2022-10-01T04:57:30.228Z,0.00
2022-10-01T04:58:30.229Z,0.00
2022-10-01T04:59:30.199Z,0.00
2022-10-01T05:00:30.178Z,0.00
2022-10-01T05:01:30.224Z,0.00
2022-10-01T05:02:30.189Z,0.00
2022-10-01T05:03:30.150Z,0.00
2022-10-01T05:04:30.149Z,0.00
2022-10-01T05:05:30.129Z,0.00
2022-10-01T05:06:30.119Z,0.00
2022-10-01T05:07:30.107Z,0.00
2022-10-01T05:08:30.098Z,0.00
2022-10-01T05:09:30.109Z,0.00
2022-10-01T05:10:30.068Z,0.00
2022-10-01T05:11:30.066Z,0.00
2022-10-01T05:12:30.048Z,0.00
2022-10-01T05:13:30.302Z,4.00
2022-10-01T05:14:30.022Z,4.00
2022-10-01T05:15:30.045Z,4.00
2022-10-01T05:16:30.045Z,4.00
2022-10-01T05:17:29.989Z,4.00
2022-10-01T05:18:29.978Z,4.00
2022-10-01T05:19:29.968Z,0.00
2022-10-01T05:20:30.007Z,4.00
2022-10-01T05:21:29.951Z,4.00
2022-10-01T05:22:29.936Z,4.00
2022-10-01T05:23:29.928Z,8.00
2022-10-01T05:24:29.908Z,8.00
2022-10-01T05:25:29.900Z,12.00
2022-10-01T05:26:29.908Z,12.00
2022-10-01T05:27:29.878Z,16.00
2022-10-01T05:28:30.074Z,20.00
2022-10-01T05:29:29.858Z,28.00
2022-10-01T05:30:29.839Z,32.00
2022-10-01T05:31:29.910Z,28.00
2022-10-01T05:32:29.837Z,36.00
2022-10-01T05:33:29.807Z,48.00
2022-10-01T05:34:29.797Z,44.00
2022-10-01T05:35:29.820Z,64.00
2022-10-01T05:36:29.769Z,72.00
2022-10-01T05:37:29.795Z,52.00
2022-10-01T05:38:29.749Z,52.00
2022-10-01T05:39:29.739Z,44.00
2022-10-01T05:40:29.728Z,36.00
2022-10-01T05:41:29.718Z,28.00
2022-10-01T05:42:29.705Z,36.00
2022-10-01T05:43:29.707Z,40.00
2022-10-01T05:44:29.678Z,44.00
2022-10-01T05:45:29.753Z,48.00
2022-10-01T05:46:29.662Z,56.00
2022-10-01T05:47:29.660Z,64.00
2022-10-01T05:48:29.728Z,76.00
2022-10-01T05:49:29.633Z,100.00
2022-10-01T05:50:29.617Z,96.00
2022-10-01T05:51:29.609Z,84.00
2022-10-01T05:52:29.588Z,88.00
2022-10-01T05:53:29.577Z,96.00
2022-10-01T05:54:29.626Z,112.00
2022-10-01T05:55:29.558Z,80.00
2022-10-01T05:56:29.546Z,92.00
2022-10-01T05:57:29.537Z,96.00
2022-10-01T05:58:29.520Z,96.00
2022-10-01T05:59:31.870Z,108.00
2022-10-01T06:00:29.595Z,112.00
2022-10-01T06:01:29.497Z,112.00
2022-10-01T06:02:29.617Z,120.00
2022-10-01T06:03:29.467Z,136.00
2022-10-01T06:04:29.450Z,124.00
2022-10-01T06:05:29.478Z,152.00
2022-10-01T06:06:29.430Z,164.00
2022-10-01T06:07:29.429Z,164.00
2022-10-01T06:08:29.408Z,200.00
2022-10-01T06:09:29.408Z,184.00
2022-10-01T06:10:29.400Z,172.00
2022-10-01T06:11:29.406Z,156.00
2022-10-01T06:12:29.367Z,188.00
2022-10-01T06:13:29.363Z,164.00
2022-10-01T06:14:29.347Z,188.00
2022-10-01T06:15:29.363Z,172.00
2022-10-01T06:16:29.366Z,176.00
2022-10-01T06:17:29.331Z,192.00
2022-10-01T06:18:29.297Z,196.00
2022-10-01T06:19:29.291Z,196.00
2022-10-01T06:20:29.267Z,236.00
2022-10-01T06:21:29.268Z,260.00
2022-10-01T06:22:29.298Z,224.00
2022-10-01T06:23:29.248Z,260.00
2022-10-01T06:24:29.228Z,244.00
2022-10-01T06:25:29.220Z,260.00
2022-10-01T06:26:29.207Z,280.00
2022-10-01T06:27:29.206Z,264.00
2022-10-01T06:28:29.263Z,256.00
2022-10-01T06:29:29.175Z,272.00
2022-10-01T06:30:29.159Z,280.00
2022-10-01T06:31:29.183Z,276.00
2022-10-01T06:32:32.804Z,332.00
2022-10-01T06:33:30.146Z,280.00
2022-10-01T06:34:29.136Z,200.00
2022-10-01T06:35:29.117Z,260.00
2022-10-01T06:36:29.088Z,224.00
2022-10-01T06:37:29.087Z,324.00
2022-10-01T06:38:29.068Z,268.00
2022-10-01T06:39:29.067Z,328.00
2022-10-01T06:40:29.069Z,344.00
2022-10-01T06:41:29.041Z,344.00
2022-10-01T06:42:29.019Z,408.00
2022-10-01T06:43:29.019Z,436.00
2022-10-01T06:44:28.997Z,324.00
2022-10-01T06:45:29.041Z,292.00
2022-10-01T06:46:28.998Z,316.00
2022-10-01T06:47:28.968Z,456.00
2022-10-01T06:48:28.956Z,612.00
2022-10-01T06:49:28.947Z,636.00
2022-10-01T06:50:28.927Z,524.00
2022-10-01T06:51:28.919Z,432.00
2022-10-01T06:52:28.930Z,584.00
2022-10-01T06:53:28.899Z,536.00
2022-10-01T06:54:28.888Z,540.00
2022-10-01T06:55:28.879Z,540.00
2022-10-01T06:56:28.860Z,420.00
2022-10-01T06:57:28.866Z,512.00
2022-10-01T06:58:28.857Z,448.00
2022-10-01T06:59:28.828Z,432.00
2022-10-01T07:00:28.817Z,484.00
2022-10-01T07:01:28.856Z,612.00
2022-10-01T07:02:28.914Z,640.00
2022-10-01T07:03:28.797Z,800.00
2022-10-01T07:04:28.768Z,740.00
2022-10-01T07:05:28.766Z,616.00
2022-10-01T07:06:28.747Z,820.00
2022-10-01T07:07:30.096Z,620.00
2022-10-01T07:08:28.719Z,616.00
2022-10-01T07:09:28.757Z,592.00
2022-10-01T07:10:28.699Z,720.00
2022-10-01T07:11:28.687Z,608.00
2022-10-01T07:12:28.677Z,692.00
2022-10-01T07:13:28.669Z,564.00
2022-10-01T07:14:28.648Z,560.00
2022-10-01T07:15:28.658Z,688.00
2022-10-01T07:16:28.698Z,720.00
2022-10-01T07:17:28.630Z,616.00
2022-10-01T07:18:28.609Z,624.00
2022-10-01T07:19:28.619Z,764.00
2022-10-01T07:20:28.609Z,848.00
2022-10-01T07:21:28.576Z,840.00
2022-10-01T07:22:28.558Z,812.00
2022-10-01T07:23:28.578Z,700.00
2022-10-01T07:24:28.541Z,824.00
2022-10-01T07:25:28.536Z,708.00
2022-10-01T07:26:28.571Z,796.00
2022-10-01T07:27:28.509Z,792.00
2022-10-01T07:28:28.608Z,728.00
2022-10-01T07:29:28.498Z,864.00
2022-10-01T07:30:28.475Z,796.00
2022-10-01T07:31:28.515Z,824.00
2022-10-01T07:32:28.476Z,872.00
2022-10-01T07:33:28.459Z,872.00
2022-10-01T07:34:28.430Z,912.00
2022-10-01T07:35:28.431Z,988.00
2022-10-01T07:36:28.399Z,1164.00
2022-10-01T07:37:28.396Z,1372.00
2022-10-01T07:38:28.398Z,1296.00
2022-10-01T07:39:28.368Z,860.00
2022-10-01T07:40:28.358Z,912.00
2022-10-01T07:41:28.348Z,1232.00
2022-10-01T07:42:28.328Z,1008.00
2022-10-01T07:43:28.347Z,1284.00
2022-10-01T07:44:28.312Z,1204.00
2022-10-01T07:45:28.339Z,1156.00
2022-10-01T07:46:31.488Z,944.00
2022-10-01T07:47:29.278Z,1276.00
2022-10-01T07:48:28.266Z,1232.00
2022-10-01T07:49:28.280Z,1464.00
2022-10-01T07:50:28.238Z,944.00
2022-10-01T07:51:28.243Z,1172.00
2022-10-01T07:52:28.217Z,1276.00
2022-10-01T07:53:28.210Z,920.00
2022-10-01T07:54:28.215Z,764.00
2022-10-01T07:55:28.188Z,884.00
2022-10-01T07:56:28.169Z,904.00
2022-10-01T07:57:28.168Z,708.00
2022-10-01T07:58:28.147Z,664.00
2022-10-01T07:59:28.140Z,888.00
2022-10-01T08:00:28.146Z,692.00
2022-10-01T08:01:28.147Z,868.00
2022-10-01T08:02:28.151Z,828.00
2022-10-01T08:03:28.087Z,616.00
2022-10-01T08:04:28.081Z,756.00
2022-10-01T08:05:28.075Z,716.00
2022-10-01T08:06:28.084Z,588.00
2022-10-01T08:07:28.048Z,684.00
2022-10-01T08:08:28.028Z,624.00
2022-10-01T08:09:28.027Z,632.00
2022-10-01T08:10:28.016Z,768.00
2022-10-01T08:11:27.998Z,804.00
2022-10-01T08:12:28.028Z,732.00
2022-10-01T08:13:27.980Z,780.00
2022-10-01T08:14:27.967Z,796.00
2022-10-01T08:15:27.956Z,796.00
2022-10-01T08:16:27.962Z,816.00
2022-10-01T08:17:29.513Z,616.00
2022-10-01T08:18:27.938Z,756.00
2022-10-01T08:19:27.916Z,668.00
2022-10-01T08:20:27.897Z,624.00
2022-10-01T08:21:27.887Z,716.00
2022-10-01T08:22:27.868Z,800.00
2022-10-01T08:23:27.867Z,896.00
2022-10-01T08:24:27.879Z,788.00
2022-10-01T08:25:27.840Z,860.00
2022-10-01T08:26:27.828Z,1252.00
2022-10-01T08:27:27.817Z,980.00
2022-10-01T08:28:27.860Z,1016.00
2022-10-01T08:29:27.861Z,1276.00
2022-10-01T08:30:27.788Z,1496.00
2022-10-01T08:31:27.801Z,1596.00
2022-10-01T08:32:27.769Z,1512.00
2022-10-01T08:33:27.748Z,1596.00
2022-10-01T08:34:27.738Z,2012.00
2022-10-01T08:35:27.758Z,1636.00
2022-10-01T08:36:27.718Z,1984.00
2022-10-01T08:37:27.704Z,1944.00
2022-10-01T08:38:27.688Z,1740.00
2022-10-01T08:39:27.677Z,2056.00
2022-10-01T08:40:27.690Z,1872.00
2022-10-01T08:41:27.657Z,2288.00
2022-10-01T08:42:27.650Z,2132.00
2022-10-01T08:43:27.637Z,2084.00
2022-10-01T08:44:27.629Z,2712.00
2022-10-01T08:45:27.648Z,2724.00
2022-10-01T08:46:27.839Z,3428.00
2022-10-01T08:47:27.585Z,3424.00
2022-10-01T08:48:27.577Z,4156.00
2022-10-01T08:49:27.557Z,4772.00
2022-10-01T08:50:27.559Z,4092.00
2022-10-01T08:51:27.540Z,4480.00
2022-10-01T08:52:27.552Z,4544.00
2022-10-01T08:53:27.519Z,5604.00
2022-10-01T08:54:27.509Z,5060.00
2022-10-01T08:55:27.492Z,5144.00
2022-10-01T08:56:27.478Z,5988.00
2022-10-01T08:57:27.469Z,6616.00
2022-10-01T08:58:27.479Z,6712.00
2022-10-01T08:59:27.604Z,6628.00
2022-10-01T09:00:27.458Z,5272.00
2022-10-01T09:01:27.497Z,4928.00
2022-10-01T09:02:27.417Z,4244.00
2022-10-01T09:03:27.427Z,4096.00
2022-10-01T09:04:27.479Z,3916.00
2022-10-01T09:05:27.380Z,4436.00
2022-10-01T09:06:27.370Z,5240.00
2022-10-01T09:07:27.357Z,5284.00
2022-10-01T09:08:27.349Z,7012.00
2022-10-01T09:09:27.358Z,8132.00
2022-10-01T09:10:27.320Z,8296.00
2022-10-01T09:11:27.308Z,10484.00
2022-10-01T09:12:27.298Z,10516.00
2022-10-01T09:13:27.290Z,11584.00
2022-10-01T09:14:27.279Z,9592.00
2022-10-01T09:15:27.289Z,10696.00
2022-10-01T09:16:27.295Z,10216.00
2022-10-01T09:17:27.241Z,11268.00
2022-10-01T09:18:34.281Z,9348.00
2022-10-01T09:19:27.219Z,8176.00
2022-10-01T09:20:29.872Z,7116.00
2022-10-01T09:21:27.219Z,5456.00
2022-10-01T09:22:27.189Z,4836.00
2022-10-01T09:23:27.170Z,4316.00
2022-10-01T09:24:27.170Z,3976.00
2022-10-01T09:25:27.174Z,3584.00
2022-10-01T09:26:27.139Z,3052.00
2022-10-01T09:27:27.150Z,3068.00
2022-10-01T09:28:27.202Z,2580.00
2022-10-01T09:29:27.101Z,2364.00
2022-10-01T09:30:27.116Z,2732.00
2022-10-01T09:31:27.137Z,2324.00
2022-10-01T09:32:27.069Z,2252.00
2022-10-01T09:33:27.100Z,2580.00
2022-10-01T09:34:27.041Z,3308.00
2022-10-01T09:35:27.031Z,4108.00
2022-10-01T09:36:27.024Z,4128.00
2022-10-01T09:37:27.010Z,5084.00
2022-10-01T09:38:27.000Z,4868.00
2022-10-01T09:39:27.000Z,4988.00
2022-10-01T09:40:26.979Z,4492.00
2022-10-01T09:41:26.961Z,5180.00
2022-10-01T09:42:26.951Z,4732.00
2022-10-01T09:43:26.940Z,4668.00
2022-10-01T09:44:26.931Z,5256.00
2022-10-01T09:45:27.007Z,5264.00
2022-10-01T09:46:26.911Z,4612.00
2022-10-01T09:47:26.892Z,4248.00
2022-10-01T09:48:26.880Z,4528.00
2022-10-01T09:49:26.871Z,5440.00
2022-10-01T09:50:26.883Z,6604.00
2022-10-01T09:51:26.850Z,6568.00
2022-10-01T09:52:26.841Z,7156.00
2022-10-01T09:53:26.832Z,8072.00
2022-10-01T09:54:26.820Z,7424.00
2022-10-01T09:55:26.822Z,7700.00
2022-10-01T09:56:26.822Z,9768.00
2022-10-01T09:57:26.782Z,13316.00
2022-10-01T09:58:26.771Z,10856.00
2022-10-01T09:59:26.751Z,9636.00
2022-10-01T10:00:26.769Z,10648.00
2022-10-01T10:01:26.749Z,10316.00
2022-10-01T10:02:26.863Z,11116.00
2022-10-01T10:03:26.792Z,11584.00
2022-10-01T10:04:26.715Z,11488.00
2022-10-01T10:05:26.684Z,13392.00
2022-10-01T10:06:26.681Z,10940.00
2022-10-01T10:07:26.690Z,10144.00
2022-10-01T10:08:26.654Z,12260.00
2022-10-01T10:09:26.646Z,12452.00
2022-10-01T10:10:26.632Z,10860.00
2022-10-01T10:11:26.611Z,11596.00
2022-10-01T10:12:26.619Z,13488.00
2022-10-01T10:13:26.632Z,16900.00
2022-10-01T10:14:26.591Z,17408.00
2022-10-01T10:15:26.601Z,22208.00
2022-10-01T10:16:26.808Z,20096.00
2022-10-01T10:17:26.561Z,20832.00
2022-10-01T10:18:26.544Z,21696.00
2022-10-01T10:19:26.550Z,20032.00
2022-10-01T10:20:26.611Z,20160.00
2022-10-01T10:21:26.502Z,18464.00
2022-10-01T10:22:26.492Z,16588.00
2022-10-01T10:23:26.530Z,15336.00
2022-10-01T10:24:26.586Z,14460.00
2022-10-01T10:25:26.463Z,15848.00
2022-10-01T10:26:26.451Z,14148.00
2022-10-01T10:27:27.224Z,14540.00
2022-10-01T10:28:26.478Z,15004.00
2022-10-01T10:29:26.413Z,15824.00
2022-10-01T10:30:26.458Z,15376.00
2022-10-01T10:31:26.429Z,14696.00
2022-10-01T10:32:26.383Z,13924.00
2022-10-01T10:33:26.394Z,14324.00
2022-10-01T10:34:26.358Z,13444.00
2022-10-01T10:35:26.341Z,10292.00
2022-10-01T10:36:26.353Z,8564.00
2022-10-01T10:37:26.314Z,8100.00
2022-10-01T10:38:26.389Z,8412.00
2022-10-01T10:39:26.434Z,10400.00
2022-10-01T10:40:29.464Z,11296.00
2022-10-01T10:41:26.289Z,12684.00
2022-10-01T10:42:26.295Z,10304.00
2022-10-01T10:43:26.244Z,9520.00
2022-10-01T10:44:26.255Z,9716.00
2022-10-01T10:45:26.235Z,11040.00
2022-10-01T10:46:26.244Z,12204.00
2022-10-01T10:47:26.206Z,12816.00
2022-10-01T10:48:26.275Z,12548.00
2022-10-01T10:49:26.176Z,15060.00
2022-10-01T10:50:26.176Z,13952.00
2022-10-01T10:51:26.166Z,14680.00
2022-10-01T10:52:26.148Z,17376.00
2022-10-01T10:53:26.151Z,23040.00
2022-10-01T10:54:26.145Z,20736.00
2022-10-01T10:55:26.114Z,19456.00
2022-10-01T10:56:26.196Z,18304.00
2022-10-01T10:57:26.085Z,16940.00
2022-10-01T10:58:26.105Z,21024.00
2022-10-01T10:59:26.067Z,16992.00
2022-10-01T11:00:26.087Z,16932.00
2022-10-01T11:01:26.111Z,16960.00
2022-10-01T11:02:26.076Z,16092.00
2022-10-01T11:03:26.017Z,18080.00
2022-10-01T11:04:26.014Z,20032.00
2022-10-01T11:05:26.016Z,20608.00
2022-10-01T11:06:25.986Z,20768.00
2022-10-01T11:07:26.046Z,19872.00
2022-10-01T11:08:25.965Z,21696.00
2022-10-01T11:09:25.959Z,21056.00
2022-10-01T11:10:25.936Z,20480.00
2022-10-01T11:11:25.947Z,20160.00
2022-10-01T11:12:25.919Z,19840.00
2022-10-01T11:13:25.905Z,17920.00
2022-10-01T11:14:25.898Z,17600.00
2022-10-01T11:15:25.879Z,17344.00
2022-10-01T11:16:25.991Z,16300.00
2022-10-01T11:17:25.868Z,15360.00
2022-10-01T11:18:25.848Z,16008.00
2022-10-01T11:19:25.827Z,13600.00
2022-10-01T11:20:25.828Z,14156.00
2022-10-01T11:21:25.807Z,14752.00
2022-10-01T11:22:25.818Z,15212.00
2022-10-01T11:23:25.797Z,15512.00
2022-10-01T11:24:25.787Z,18304.00
2022-10-01T11:25:25.776Z,20256.00
2022-10-01T11:26:25.756Z,21664.00
2022-10-01T11:27:25.739Z,23168.00
2022-10-01T11:28:25.795Z,22400.00
2022-10-01T11:29:25.737Z,23360.00
2022-10-01T11:30:25.717Z,23168.00
2022-10-01T11:31:25.739Z,22176.00
2022-10-01T11:32:25.690Z,21568.00
2022-10-01T11:33:25.669Z,20512.00
2022-10-01T11:34:25.729Z,21984.00
2022-10-01T11:35:25.674Z,21344.00
2022-10-01T11:36:25.648Z,20672.00
2022-10-01T11:37:25.643Z,20384.00
2022-10-01T11:38:25.622Z,20512.00
2022-10-01T11:39:25.602Z,18784.00
2022-10-01T11:40:25.647Z,15892.00
2022-10-01T11:41:25.582Z,17408.00
2022-10-01T11:42:25.569Z,17760.00
2022-10-01T11:43:25.642Z,14248.00
2022-10-01T11:44:25.550Z,13720.00
2022-10-01T11:45:25.588Z,17184.00
2022-10-01T11:46:25.570Z,17248.00
2022-10-01T11:47:25.510Z,17472.00
2022-10-01T11:48:25.502Z,19200.00
2022-10-01T11:49:25.497Z,19712.00
2022-10-01T11:50:25.502Z,19424.00
2022-10-01T11:51:25.471Z,18496.00
2022-10-01T11:52:25.543Z,17984.00
2022-10-01T11:53:25.455Z,17600.00
2022-10-01T11:54:25.441Z,17984.00
2022-10-01T11:55:25.430Z,15836.00
2022-10-01T11:56:25.427Z,15540.00
2022-10-01T11:57:25.425Z,17888.00
2022-10-01T11:58:25.408Z,19008.00
2022-10-01T11:59:25.381Z,16832.00
2022-10-01T12:00:27.391Z,15536.00
2022-10-01T12:01:25.390Z,18112.00
2022-10-01T12:02:25.400Z,16184.00
2022-10-01T12:03:25.362Z,18976.00
2022-10-01T12:04:25.331Z,18176.00
2022-10-01T12:05:25.394Z,20672.00
2022-10-01T12:06:26.818Z,19808.00
2022-10-01T12:07:25.294Z,19200.00
2022-10-01T12:08:25.303Z,18208.00
2022-10-01T12:09:25.273Z,15700.00
2022-10-01T12:10:25.264Z,17088.00
2022-10-01T12:11:25.243Z,16492.00
2022-10-01T12:12:25.234Z,17184.00
2022-10-01T12:13:25.226Z,17728.00
2022-10-01T12:14:25.252Z,16144.00
2022-10-01T12:15:25.213Z,15104.00
2022-10-01T12:16:25.216Z,16668.00
2022-10-01T12:17:25.182Z,16236.00
2022-10-01T12:18:25.169Z,12108.00
2022-10-01T12:19:25.177Z,13244.00
2022-10-01T12:20:25.147Z,14052.00
2022-10-01T12:21:25.126Z,15084.00
2022-10-01T12:22:25.126Z,17056.00
2022-10-01T12:23:25.096Z,17184.00
2022-10-01T12:24:25.092Z,14168.00
2022-10-01T12:25:25.615Z,11580.00
2022-10-01T12:26:25.065Z,13096.00
2022-10-01T12:27:25.044Z,12188.00
2022-10-01T12:28:25.085Z,12172.00
2022-10-01T12:29:25.045Z,11128.00
2022-10-01T12:30:25.041Z,12032.00
2022-10-01T12:31:25.103Z,10792.00
2022-10-01T12:32:25.977Z,9912.00
2022-10-01T12:33:24.988Z,12476.00
2022-10-01T12:34:25.030Z,13908.00
2022-10-01T12:35:24.998Z,14728.00
2022-10-01T12:36:24.973Z,14884.00
2022-10-01T12:37:25.124Z,13796.00